Terminal Aerodrome Forecast
Issued by NWS

Home | Current Version | Previous Version | Text Only | Print | Product List | Glossary On
Versions: 1 2 3 4 5 6 7 8 9 10 11 12 13 14 15
070
FTAK31 PAJN 271736
TAFAWG
TAF
PAWG 271736Z 2718/2818 08009KT P6SM -RA BKN035 OVC050
     FM272200 11012KT 5SM -RA BR OVC025 WS020/13030KT
     FM280400 13008KT 6SM -SHRA BR OVC025
     FM281100 VRB04KT P6SM VCSH OVC025
      AMD LTD TO CLD VIS AND WIND 2806/2815=

USA.gov is the U.S. government's official web portal to all federal, state and local government web resources and services.